Time;durP1;ratioP1;P1;durP2;ratioP2;P2;SDS_P1;SDS_P2;PMS_P1;PMS_P2;Temp;Humidity;BMP_temperature;BMP_pressure;BME280_temperature;BME280_humidity;BME280_pressure;Samples;Min_cycle;Max_cycle;Signal;HPM_P1;HPM_P2
2022/12/25 00:00:32;;;;;;;;;;;8.60;89.00;;;;;;5001270;28;20735;-80
2022/12/25 00:02:57;;;;;;;;;;;8.60;89.00;;;;;;4979463;28;21321;-76
2022/12/25 00:05:23;;;;;;;;;;;8.60;89.00;;;;;;4989386;28;21742;-76
2022/12/25 00:07:48;;;;;;;;;;;8.60;89.00;;;;;;4974349;28;19922;-76
2022/12/25 00:10:14;;;;;;;;;;;8.50;89.00;;;;;;4986528;28;19914;-76
2022/12/25 00:12:39;;;;;;;;;;;8.50;89.00;;;;;;4998860;28;19914;-76
2022/12/25 00:15:05;;;;;;;;;;;8.50;89.00;;;;;;4993240;28;19921;-76
2022/12/25 00:17:30;;;;;;;;;;;8.60;88.90;;;;;;4991667;28;19929;-76
2022/12/25 00:19:56;;;;;;;;;;;8.60;88.80;;;;;;4992757;28;19937;-76
2022/12/25 00:22:22;;;;;;;;;;;8.70;88.70;;;;;;4992988;28;19920;-76
2022/12/25 00:24:47;;;;;;;;;;;8.80;88.70;;;;;;4995855;28;19924;-76
2022/12/25 00:27:13;;;;;;;;;;;8.80;88.60;;;;;;4989615;28;20016;-76
2022/12/25 00:29:38;;;;;;;;;;;8.90;88.50;;;;;;4997474;28;19949;-76
2022/12/25 00:32:04;;;;;;;;;;;9.00;88.50;;;;;;4981382;28;20266;-76
2022/12/25 00:34:29;;;;;;;;;;;9.00;88.60;;;;;;5001211;28;19914;-76
2022/12/25 00:36:54;;;;;;;;;;;9.00;88.50;;;;;;5000017;28;19917;-76
2022/12/25 00:39:20;;;;;;;;;;;9.00;88.50;;;;;;5003121;28;19914;-76
2022/12/25 00:44:30;;;;;;;;;;;8.80;88.50;;;;;;4991381;28;19969;-77
2022/12/25 00:46:55;;;;;;;;;;;8.80;88.70;;;;;;4990084;28;19917;-76
2022/12/25 00:49:22;;;;;;;;;;;8.90;88.70;;;;;;4995252;28;21972;-76
2022/12/25 00:51:48;;;;;;;;;;;8.80;88.70;;;;;;4993818;28;19918;-76
2022/12/25 00:54:14;;;;;;;;;;;8.80;88.70;;;;;;4992546;28;19960;-76
2022/12/25 00:56:39;;;;;;;;;;;8.80;88.70;;;;;;4991382;28;19918;-76
2022/12/25 00:59:05;;;;;;;;;;;8.90;88.70;;;;;;4985544;28;19928;-76
2022/12/25 01:01:30;;;;;;;;;;;8.80;88.70;;;;;;4995554;28;19943;-75
2022/12/25 01:03:56;;;;;;;;;;;8.80;88.70;;;;;;4982326;28;19913;-75
2022/12/25 01:06:21;;;;;;;;;;;8.80;88.60;;;;;;4997774;28;19925;-75
2022/12/25 01:11:31;;;;;;;;;;;8.80;88.80;;;;;;4997278;28;19924;-75
2022/12/25 01:13:57;;;;;;;;;;;8.80;88.80;;;;;;4988287;28;19917;-75
2022/12/25 01:16:22;;;;;;;;;;;8.80;88.80;;;;;;4989116;28;20655;-75
2022/12/25 01:18:48;;;;;;;;;;;8.90;88.80;;;;;;4996021;28;19949;-75
2022/12/25 01:21:19;;;;;;;;;;;8.90;88.90;;;;;;4992074;28;19925;-75
2022/12/25 01:23:45;;;;;;;;;;;8.90;89.00;;;;;;5009734;28;20320;-76
2022/12/25 01:26:12;;;;;;;;;;;9.00;88.90;;;;;;4990286;28;19914;-76
2022/12/25 01:28:38;;;;;;;;;;;9.00;88.90;;;;;;4993262;28;19929;-76
2022/12/25 01:31:07;;;;;;;;;;;9.10;89.00;;;;;;4992024;28;19925;-75
2022/12/25 01:33:32;;;;;;;;;;;9.10;88.80;;;;;;4999977;28;19944;-75
2022/12/25 01:35:58;;;;;;;;;;;9.10;88.80;;;;;;4991060;28;19913;-75
2022/12/25 01:38:23;;;;;;;;;;;9.20;88.70;;;;;;4994403;28;19975;-75
2022/12/25 01:40:49;;;;;;;;;;;9.20;88.80;;;;;;4995722;28;19965;-75
2022/12/25 01:43:23;;;;;;;;;;;9.30;88.50;;;;;;4998222;28;20610;-75
2022/12/25 01:45:51;;;;;;;;;;;9.20;88.50;;;;;;4989951;28;19996;-76
2022/12/25 01:48:22;;;;;;;;;;;9.40;88.30;;;;;;4981593;28;19920;-76
2022/12/25 01:50:56;;;;;;;;;;;9.30;88.20;;;;;;4976157;28;19917;-75
2022/12/25 01:53:21;;;;;;;;;;;9.30;88.10;;;;;;4993773;28;19924;-75
2022/12/25 01:55:48;;;;;;;;;;;9.40;88.10;;;;;;4993017;28;20437;-75
2022/12/25 01:58:14;;;;;;;;;;;9.30;88.00;;;;;;4995100;28;19913;-75
2022/12/25 02:00:39;;;;;;;;;;;9.30;88.10;;;;;;4993836;28;19928;-75
2022/12/25 02:03:05;;;;;;;;;;;9.30;88.20;;;;;;4990929;28;20000;-75
2022/12/25 02:05:32;;;;;;;;;;;9.40;88.10;;;;;;4996553;23;19945;-81
2022/12/25 02:07:59;;;;;;;;;;;9.40;88.10;;;;;;4980599;28;19918;-81
2022/12/25 02:10:25;;;;;;;;;;;9.40;87.90;;;;;;4971423;28;21715;-82
2022/12/25 02:12:51;;;;;;;;;;;9.30;87.80;;;;;;4988991;28;19909;-81
2022/12/25 02:15:17;;;;;;;;;;;9.30;88.00;;;;;;4968359;28;19918;-80
2022/12/25 02:17:46;;;;;;;;;;;9.40;87.80;;;;;;4986650;28;19918;-80
2022/12/25 02:20:30;;;;;;;;;;;9.50;87.90;;;;;;4987828;28;19913;-81
2022/12/25 02:23:03;;;;;;;;;;;9.40;87.80;;;;;;4998706;28;19920;-81
2022/12/25 02:25:38;;;;;;;;;;;9.50;87.80;;;;;;4968085;28;19918;-80
2022/12/25 02:28:05;;;;;;;;;;;9.50;87.90;;;;;;4970455;28;19913;-80
2022/12/25 02:30:36;;;;;;;;;;;9.50;88.00;;;;;;4987642;28;21424;-80
2022/12/25 02:35:52;;;;;;;;;;;9.50;88.10;;;;;;4987565;28;19993;-81
2022/12/25 02:38:29;;;;;;;;;;;9.60;87.50;;;;;;4990764;28;19917;-80
2022/12/25 02:40:56;;;;;;;;;;;9.60;87.50;;;;;;4982451;28;21881;-79
2022/12/25 03:08:31;;;;;;;;;;;9.80;88.30;;;;;;4986201;28;19936;-80
2022/12/25 03:13:45;;;;;;;;;;;9.90;88.10;;;;;;4985843;28;19924;-80
2022/12/25 03:18:56;;;;;;;;;;;9.80;88.50;;;;;;4981867;28;21726;-79
2022/12/25 03:26:56;;;;;;;;;;;9.70;89.20;;;;;;4986462;28;19929;-79
2022/12/25 03:32:33;;;;;;;;;;;9.70;89.20;;;;;;5006841;28;19932;-79
2022/12/25 03:35:24;;;;;;;;;;;9.70;89.30;;;;;;5005635;28;19972;-79
2022/12/25 04:36:17;;;;;;;;;;;9.70;90.10;;;;;;5043850;28;19923;-80
2022/12/25 04:38:42;;;;;;;;;;;9.70;89.80;;;;;;5043291;28;20050;-80
2022/12/25 04:41:09;;;;;;;;;;;9.70;89.80;;;;;;5027220;28;19917;-80
2022/12/25 04:43:35;;;;;;;;;;;9.80;89.60;;;;;;5045457;28;19913;-79
2022/12/25 04:46:01;;;;;;;;;;;9.60;89.60;;;;;;5042387;28;19963;-80
2022/12/25 04:48:28;;;;;;;;;;;9.90;89.70;;;;;;5023434;28;20181;-80
2022/12/25 04:50:55;;;;;;;;;;;9.70;89.30;;;;;;5044386;28;20350;-80
2022/12/25 04:53:20;;;;;;;;;;;9.70;89.60;;;;;;5031800;28;19952;-80
2022/12/25 04:55:46;;;;;;;;;;;9.60;89.50;;;;;;5046311;28;19967;-80
2022/12/25 04:58:11;;;;;;;;;;;9.60;89.50;;;;;;5026857;28;19986;-80
2022/12/25 05:00:37;;;;;;;;;;;9.60;89.30;;;;;;5046164;28;20411;-80
2022/12/25 05:03:03;;;;;;;;;;;9.50;89.50;;;;;;5043212;28;20733;-80
2022/12/25 05:05:28;;;;;;;;;;;9.40;89.70;;;;;;5046381;28;20349;-80
2022/12/25 05:07:53;;;;;;;;;;;9.50;89.90;;;;;;5046395;28;19913;-80
2022/12/25 05:10:19;;;;;;;;;;;9.50;89.90;;;;;;5048243;28;19913;-79
2022/12/25 05:12:45;;;;;;;;;;;9.40;89.90;;;;;;5044634;28;19976;-80
2022/12/25 05:15:10;;;;;;;;;;;9.40;90.10;;;;;;5025721;28;19921;-79
2022/12/25 05:17:36;;;;;;;;;;;9.40;89.70;;;;;;5046435;28;19917;-79
2022/12/25 05:20:02;;;;;;;;;;;9.40;90.00;;;;;;5020644;28;19913;-79
2022/12/25 05:22:28;;;;;;;;;;;9.50;90.10;;;;;;5024019;28;19924;-80
2022/12/25 05:24:53;;;;;;;;;;;9.50;89.80;;;;;;5029293;28;20005;-79
2022/12/25 05:27:19;;;;;;;;;;;9.40;90.00;;;;;;5029117;28;20012;-79
2022/12/25 05:29:44;;;;;;;;;;;9.40;90.00;;;;;;5026106;28;19959;-80
2022/12/25 05:32:10;;;;;;;;;;;9.30;90.00;;;;;;5039846;28;19927;-79
2022/12/25 05:34:35;;;;;;;;;;;9.30;90.10;;;;;;5045957;28;19913;-80
2022/12/25 05:37:01;;;;;;;;;;;9.30;90.10;;;;;;5029630;28;19976;-80
2022/12/25 05:39:26;;;;;;;;;;;9.20;90.20;;;;;;5029922;28;19916;-80
2022/12/25 05:41:51;;;;;;;;;;;9.40;90.20;;;;;;5044143;28;19913;-80
2022/12/25 05:44:17;;;;;;;;;;;9.30;89.90;;;;;;5045214;28;19909;-80
2022/12/25 05:46:42;;;;;;;;;;;9.30;90.00;;;;;;5023705;28;19928;-79
2022/12/25 05:49:08;;;;;;;;;;;9.20;90.10;;;;;;5041613;28;19921;-79
2022/12/25 05:51:33;;;;;;;;;;;9.20;90.10;;;;;;5046910;28;19924;-80
2022/12/25 05:53:59;;;;;;;;;;;9.30;90.20;;;;;;5046384;28;20378;-80
2022/12/25 05:56:24;;;;;;;;;;;9.20;90.20;;;;;;5042592;28;19921;-80
2022/12/25 05:58:50;;;;;;;;;;;9.20;90.20;;;;;;5046894;28;19912;-80
2022/12/25 06:01:17;;;;;;;;;;;9.10;90.30;;;;;;5025086;28;20290;-80
2022/12/25 06:03:42;;;;;;;;;;;9.10;90.40;;;;;;5044515;28;19935;-80
2022/12/25 06:06:09;;;;;;;;;;;9.20;90.50;;;;;;5055464;28;19913;-79
2022/12/25 06:08:34;;;;;;;;;;;9.20;90.40;;;;;;5050283;28;19916;-80
2022/12/25 06:11:04;;;;;;;;;;;9.10;90.40;;;;;;5034268;28;19951;-79
2022/12/25 06:13:29;;;;;;;;;;;9.20;90.40;;;;;;5024315;28;19921;-79
2022/12/25 06:15:55;;;;;;;;;;;9.20;90.20;;;;;;5027490;28;19927;-79
2022/12/25 06:18:20;;;;;;;;;;;9.10;90.30;;;;;;5045108;28;19924;-80
2022/12/25 06:20:46;;;;;;;;;;;9.10;90.40;;;;;;5029574;28;19912;-80
2022/12/25 06:23:11;;;;;;;;;;;9.10;90.40;;;;;;5044181;28;19983;-80
2022/12/25 06:25:38;;;;;;;;;;;9.10;90.30;;;;;;5044088;28;19960;-80
2022/12/25 06:28:03;;;;;;;;;;;9.10;90.30;;;;;;5048039;28;19920;-80
2022/12/25 06:30:28;;;;;;;;;;;9.20;90.30;;;;;;5040390;28;19913;-80
2022/12/25 06:32:54;;;;;;;;;;;9.20;90.30;;;;;;5027871;28;19912;-79
2022/12/25 06:35:19;;;;;;;;;;;9.10;90.20;;;;;;5041005;28;19994;-79
2022/12/25 06:37:45;;;;;;;;;;;9.10;90.30;;;;;;5041923;28;20390;-79
2022/12/25 06:40:11;;;;;;;;;;;9.10;90.30;;;;;;5042860;28;19924;-79
2022/12/25 06:42:37;;;;;;;;;;;9.20;90.00;;;;;;5025429;28;19925;-79
2022/12/25 06:45:03;;;;;;;;;;;9.30;90.10;;;;;;5042780;28;19920;-80
2022/12/25 06:47:28;;;;;;;;;;;9.20;89.80;;;;;;5025678;28;19920;-79
2022/12/25 06:49:53;;;;;;;;;;;9.10;89.90;;;;;;5041381;28;19917;-79
2022/12/25 06:52:19;;;;;;;;;;;9.10;89.70;;;;;;5043756;28;20385;-79
2022/12/25 06:54:45;;;;;;;;;;;9.10;89.90;;;;;;5049330;28;19913;-80
2022/12/25 06:57:10;;;;;;;;;;;9.10;89.70;;;;;;5040285;28;20382;-80
2022/12/25 06:59:36;;;;;;;;;;;9.10;89.90;;;;;;5025890;28;19913;-80
2022/12/25 07:02:01;;;;;;;;;;;9.10;89.90;;;;;;5038532;28;19917;-79
2022/12/25 07:04:37;;;;;;;;;;;9.10;89.80;;;;;;5040704;28;19920;-79
2022/12/25 07:07:03;;;;;;;;;;;9.10;90.00;;;;;;5043875;28;19948;-79
2022/12/25 07:09:29;;;;;;;;;;;9.10;89.70;;;;;;5041380;28;19921;-79
2022/12/25 07:12:00;;;;;;;;;;;9.20;89.50;;;;;;5026883;28;19928;-79
2022/12/25 07:14:26;;;;;;;;;;;9.20;89.50;;;;;;5028937;28;20008;-79
2022/12/25 07:16:51;;;;;;;;;;;9.10;89.60;;;;;;5040019;28;20029;-79
2022/12/25 07:19:18;;;;;;;;;;;9.10;89.70;;;;;;5048754;28;19917;-79
2022/12/25 07:21:43;;;;;;;;;;;9.10;89.80;;;;;;5039371;28;19916;-79
2022/12/25 07:24:09;;;;;;;;;;;9.10;89.70;;;;;;5040816;28;20294;-79
2022/12/25 07:26:35;;;;;;;;;;;9.10;89.80;;;;;;5042307;28;19913;-79
2022/12/25 07:29:00;;;;;;;;;;;9.10;89.90;;;;;;5046285;28;19927;-79
2022/12/25 07:31:25;;;;;;;;;;;9.10;89.90;;;;;;5040831;28;19917;-80
2022/12/25 07:33:52;;;;;;;;;;;9.10;89.60;;;;;;5044961;28;19917;-80
2022/12/25 07:36:17;;;;;;;;;;;9.10;89.70;;;;;;5042669;28;19916;-80
2022/12/25 07:38:43;;;;;;;;;;;9.10;89.70;;;;;;5027738;28;20397;-80
2022/12/25 07:41:12;;;;;;;;;;;9.10;89.60;;;;;;5042143;28;21033;-80
2022/12/25 07:43:37;;;;;;;;;;;9.10;89.70;;;;;;5043290;28;19931;-81
2022/12/25 07:46:03;;;;;;;;;;;9.10;89.70;;;;;;5031491;28;19912;-80
2022/12/25 07:48:29;;;;;;;;;;;9.10;89.70;;;;;;5028916;28;19924;-80
2022/12/25 07:50:58;;;;;;;;;;;9.10;89.50;;;;;;5044767;28;19917;-80
2022/12/25 07:53:24;;;;;;;;;;;9.20;89.20;;;;;;5045187;28;19975;-80
2022/12/25 07:56:00;;;;;;;;;;;9.20;89.50;;;;;;5045443;28;19959;-80
2022/12/25 07:58:26;;;;;;;;;;;9.20;89.20;;;;;;5030915;28;19948;-79
2022/12/25 08:00:51;;;;;;;;;;;9.30;89.40;;;;;;5047301;28;20090;-79
2022/12/25 08:03:17;;;;;;;;;;;9.30;89.20;;;;;;5027027;28;19920;-79
2022/12/25 08:05:42;;;;;;;;;;;9.30;89.00;;;;;;5027226;23;20036;-74
2022/12/25 08:08:08;;;;;;;;;;;9.30;89.20;;;;;;5012156;28;20000;-75
2022/12/25 08:10:33;;;;;;;;;;;9.30;89.10;;;;;;4996597;28;19959;-76
2022/12/25 08:12:59;;;;;;;;;;;9.40;89.10;;;;;;5001625;28;19963;-75
2022/12/25 08:15:24;;;;;;;;;;;9.40;88.90;;;;;;4998221;28;19922;-75
2022/12/25 08:17:50;;;;;;;;;;;9.40;89.00;;;;;;4984638;28;19964;-76
2022/12/25 08:20:15;;;;;;;;;;;9.50;89.10;;;;;;4986684;28;19921;-76
2022/12/25 08:22:40;;;;;;;;;;;9.50;88.80;;;;;;5001018;28;19925;-75
2022/12/25 08:25:06;;;;;;;;;;;9.50;88.80;;;;;;5002222;28;20019;-76
2022/12/25 08:27:33;;;;;;;;;;;9.60;88.80;;;;;;5001319;28;19918;-76
2022/12/25 08:29:59;;;;;;;;;;;9.60;88.80;;;;;;4983151;28;20289;-76
2022/12/25 08:32:24;;;;;;;;;;;9.60;88.80;;;;;;4992448;28;19972;-76
2022/12/25 08:34:50;;;;;;;;;;;9.60;88.70;;;;;;5000174;28;20403;-77
2022/12/25 08:37:15;;;;;;;;;;;9.60;88.70;;;;;;4987753;28;19967;-76
2022/12/25 08:39:41;;;;;;;;;;;9.70;88.60;;;;;;5008455;28;19914;-77
2022/12/25 08:42:06;;;;;;;;;;;9.70;88.60;;;;;;5008557;28;19917;-76
2022/12/25 08:44:31;;;;;;;;;;;9.80;88.60;;;;;;5013510;28;19914;-76
2022/12/25 08:46:57;;;;;;;;;;;9.80;88.50;;;;;;5019097;28;19993;-77
2022/12/25 08:49:26;;;;;;;;;;;9.80;88.30;;;;;;5017030;28;19914;-76
2022/12/25 08:51:51;;;;;;;;;;;9.80;88.40;;;;;;5026549;28;19943;-77
2022/12/25 08:54:17;;;;;;;;;;;9.90;88.50;;;;;;5012793;28;19920;-76
2022/12/25 08:56:42;;;;;;;;;;;9.80;88.40;;;;;;5010954;28;20403;-76
2022/12/25 08:59:08;;;;;;;;;;;9.90;88.50;;;;;;5011167;28;19920;-74
2022/12/25 09:01:33;;;;;;;;;;;9.80;88.50;;;;;;5008903;28;19925;-75
2022/12/25 09:03:59;;;;;;;;;;;9.90;88.50;;;;;;5011158;28;19920;-77
2022/12/25 09:06:24;;;;;;;;;;;9.80;88.60;;;;;;4991440;28;19969;-75
2022/12/25 09:08:49;;;;;;;;;;;9.90;88.60;;;;;;5006314;28;20379;-76
2022/12/25 09:11:16;;;;;;;;;;;9.80;88.60;;;;;;5011732;28;20315;-76
2022/12/25 09:13:41;;;;;;;;;;;9.80;88.70;;;;;;5001645;28;19920;-77
2022/12/25 09:16:08;;;;;;;;;;;9.90;88.70;;;;;;4983881;28;19917;-77
2022/12/25 09:18:33;;;;;;;;;;;9.90;88.80;;;;;;4987037;28;19961;-76
2022/12/25 09:21:03;;;;;;;;;;;10.00;88.70;;;;;;4994636;28;19993;-76
2022/12/25 09:23:29;;;;;;;;;;;10.00;88.60;;;;;;5011467;28;19917;-75
2022/12/25 09:25:57;;;;;;;;;;;10.10;88.60;;;;;;5009372;28;19972;-77
2022/12/25 09:28:22;;;;;;;;;;;10.10;88.30;;;;;;4989937;28;19968;-78
2022/12/25 09:30:49;;;;;;;;;;;10.10;88.60;;;;;;4993981;28;19925;-77
2022/12/25 09:33:14;;;;;;;;;;;10.00;88.50;;;;;;4996819;28;19927;-79
2022/12/25 09:35:40;;;;;;;;;;;10.00;88.90;;;;;;5007439;28;19913;-77
2022/12/25 09:38:05;;;;;;;;;;;10.00;88.90;;;;;;5007066;28;19921;-76
2022/12/25 09:40:31;;;;;;;;;;;10.10;89.00;;;;;;5006350;28;19929;-76
2022/12/25 09:42:57;;;;;;;;;;;10.10;89.00;;;;;;4992756;28;20496;-77
2022/12/25 09:45:32;;;;;;;;;;;10.10;89.10;;;;;;4994072;28;19913;-77
2022/12/25 09:47:58;;;;;;;;;;;10.10;89.00;;;;;;4999816;28;19917;-76
2022/12/25 09:50:32;;;;;;;;;;;10.00;89.30;;;;;;5006928;28;19936;-76
2022/12/25 09:53:16;;;;;;;;;;;10.10;89.30;;;;;;5007389;28;19920;-78
2022/12/25 09:55:48;;;;;;;;;;;10.10;89.50;;;;;;5010481;28;20392;-77
2022/12/25 09:58:13;;;;;;;;;;;10.10;89.50;;;;;;5000789;28;19921;-77
2022/12/25 10:00:46;;;;;;;;;;;10.10;89.60;;;;;;4989942;28;19913;-77
2022/12/25 10:03:35;;;;;;;;;;;10.10;89.90;;;;;;4995875;28;19913;-77
2022/12/25 10:06:12;;;;;;;;;;;10.10;90.00;;;;;;4994712;28;19924;-77
2022/12/25 10:08:56;;;;;;;;;;;10.20;89.90;;;;;;4999428;28;19997;-77
2022/12/25 10:11:39;;;;;;;;;;;10.20;89.80;;;;;;5004616;28;19928;-77
2022/12/25 10:14:17;;;;;;;;;;;10.10;89.90;;;;;;5014545;28;19917;-75
2022/12/25 10:17:07;;;;;;;;;;;10.10;90.20;;;;;;5007820;28;20331;-76
2022/12/25 10:19:43;;;;;;;;;;;10.10;90.30;;;;;;5009429;28;19960;-75
2022/12/25 10:22:13;;;;;;;;;;;10.20;90.50;;;;;;5010507;28;19968;-77
2022/12/25 10:24:45;;;;;;;;;;;10.20;90.50;;;;;;5004226;28;20374;-75
2022/12/25 10:27:17;;;;;;;;;;;10.20;90.50;;;;;;5008479;28;19967;-76
2022/12/25 10:29:45;;;;;;;;;;;10.20;90.50;;;;;;5005268;28;19909;-75
2022/12/25 10:32:10;;;;;;;;;;;10.30;90.60;;;;;;5005263;28;19918;-77
2022/12/25 10:34:38;;;;;;;;;;;10.30;90.80;;;;;;4985097;28;19913;-76
2022/12/25 10:37:04;;;;;;;;;;;10.30;90.70;;;;;;4982691;28;19967;-75
2022/12/25 10:39:29;;;;;;;;;;;10.30;90.80;;;;;;5000348;28;20012;-76
2022/12/25 10:42:21;;;;;;;;;;;10.30;90.80;;;;;;5007465;28;19913;-76
2022/12/25 10:45:00;;;;;;;;;;;10.40;90.90;;;;;;4976759;28;20016;-77
2022/12/25 10:47:28;;;;;;;;;;;10.50;90.90;;;;;;4996679;28;19918;-77
2022/12/25 10:49:53;;;;;;;;;;;10.60;90.80;;;;;;5001579;28;20313;-76
2022/12/25 10:52:21;;;;;;;;;;;10.60;90.70;;;;;;5006702;28;19918;-77
2022/12/25 10:54:46;;;;;;;;;;;10.60;90.70;;;;;;5010959;28;19913;-79
2022/12/25 10:57:16;;;;;;;;;;;10.60;90.70;;;;;;4989448;28;19909;-77
2022/12/25 10:59:46;;;;;;;;;;;10.70;90.50;;;;;;5010092;28;19928;-76
2022/12/25 11:02:18;;;;;;;;;;;10.70;90.50;;;;;;5008626;28;19909;-79
2022/12/25 11:04:44;;;;;;;;;;;10.70;90.50;;;;;;5013852;28;19921;-77
2022/12/25 11:07:12;;;;;;;;;;;10.80;90.20;;;;;;5003797;28;19921;-77
2022/12/25 11:09:38;;;;;;;;;;;10.60;90.10;;;;;;5017896;28;19909;-77
2022/12/25 11:12:04;;;;;;;;;;;10.60;90.40;;;;;;4989668;28;19922;-77
2022/12/25 11:14:29;;;;;;;;;;;10.60;90.50;;;;;;5006213;28;20470;-77
2022/12/25 11:17:05;;;;;;;;;;;10.60;90.70;;;;;;5001730;28;19956;-77
2022/12/25 11:19:31;;;;;;;;;;;10.70;90.60;;;;;;4997894;28;19917;-77
2022/12/25 11:21:59;;;;;;;;;;;10.70;90.60;;;;;;5002833;28;19972;-77
2022/12/25 11:24:26;;;;;;;;;;;10.60;90.70;;;;;;4995886;28;19918;-77
2022/12/25 11:26:53;;;;;;;;;;;10.70;90.50;;;;;;4998834;28;20514;-77
2022/12/25 11:29:23;;;;;;;;;;;10.60;90.70;;;;;;4991851;28;20368;-76
2022/12/25 11:31:49;;;;;;;;;;;10.70;90.50;;;;;;4995768;28;20395;-77
2022/12/25 11:34:26;;;;;;;;;;;10.60;90.50;;;;;;4995124;28;19960;-76
2022/12/25 11:36:51;;;;;;;;;;;10.70;90.70;;;;;;5000683;28;20381;-77
2022/12/25 11:39:31;;;;;;;;;;;10.70;90.60;;;;;;4993381;28;19921;-77
2022/12/25 11:42:09;;;;;;;;;;;10.50;90.50;;;;;;4999879;28;19921;-77
2022/12/25 11:44:52;;;;;;;;;;;10.50;90.90;;;;;;5004144;28;21710;-76
2022/12/25 11:47:24;;;;;;;;;;;10.50;91.00;;;;;;5000247;28;19914;-77
2022/12/25 11:50:19;;;;;;;;;;;10.50;91.10;;;;;;5001085;28;19913;-77
2022/12/25 11:52:46;;;;;;;;;;;10.60;91.00;;;;;;4996628;28;19937;-81
2022/12/25 11:55:25;;;;;;;;;;;10.50;91.00;;;;;;4984310;28;20000;-80
2022/12/25 11:57:53;;;;;;;;;;;10.70;90.80;;;;;;4991699;28;20464;-83
2022/12/25 12:00:19;;;;;;;;;;;10.70;90.70;;;;;;5000068;28;19914;-80
2022/12/25 12:02:50;;;;;;;;;;;10.70;90.60;;;;;;4997888;28;19921;-80
2022/12/25 12:05:18;;;;;;;;;;;10.70;90.70;;;;;;5001470;28;19949;-79
2022/12/25 12:07:52;;;;;;;;;;;10.70;90.90;;;;;;4982355;28;19918;-79
2022/12/25 12:10:20;;;;;;;;;;;10.70;90.80;;;;;;5008419;28;20554;-80
2022/12/25 12:12:55;;;;;;;;;;;10.70;90.80;;;;;;4985497;28;19924;-79
2022/12/25 12:15:20;;;;;;;;;;;10.70;90.90;;;;;;4996594;28;19918;-78
2022/12/25 12:17:46;;;;;;;;;;;10.70;90.90;;;;;;4988964;28;19925;-78
2022/12/25 12:20:25;;;;;;;;;;;10.60;90.90;;;;;;5010904;28;19913;-78
2022/12/25 12:22:51;;;;;;;;;;;10.70;91.10;;;;;;5006451;28;20008;-80
2022/12/25 12:25:17;;;;;;;;;;;10.70;91.00;;;;;;5011055;28;20424;-82
2022/12/25 12:27:42;;;;;;;;;;;10.70;91.10;;;;;;5008104;28;19914;-83
2022/12/25 12:30:22;;;;;;;;;;;10.80;91.00;;;;;;5019698;28;19923;-82
2022/12/25 12:32:54;;;;;;;;;;;10.80;91.10;;;;;;4998475;28;19917;-81
2022/12/25 12:35:25;;;;;;;;;;;10.80;90.90;;;;;;5030478;28;19909;-81
2022/12/25 12:38:09;;;;;;;;;;;10.80;91.00;;;;;;5013538;28;19963;-83
2022/12/25 12:40:36;;;;;;;;;;;10.80;90.90;;;;;;5005260;28;19916;-82
2022/12/25 12:43:02;;;;;;;;;;;10.90;91.00;;;;;;4992108;28;20009;-80
2022/12/25 12:45:29;;;;;;;;;;;10.80;90.80;;;;;;5032276;28;19956;-81
2022/12/25 12:47:55;;;;;;;;;;;10.80;91.10;;;;;;5004650;28;19921;-81
2022/12/25 12:50:32;;;;;;;;;;;10.70;91.00;;;;;;4990524;28;19913;-82
2022/12/25 12:52:58;;;;;;;;;;;10.70;91.00;;;;;;5017315;28;19927;-82
2022/12/25 12:55:27;;;;;;;;;;;10.80;91.00;;;;;;5011513;28;19914;-82
2022/12/25 12:57:57;;;;;;;;;;;10.80;91.00;;;;;;4995698;28;20534;-80
2022/12/25 13:00:23;;;;;;;;;;;10.80;91.00;;;;;;5015811;28;19971;-81
2022/12/25 13:03:02;;;;;;;;;;;10.80;90.80;;;;;;4996514;28;19996;-81
2022/12/25 13:05:47;;;;;;;;;;;10.80;90.90;;;;;;4989752;28;20742;-81
2022/12/25 13:08:30;;;;;;;;;;;10.70;91.10;;;;;;5009618;28;19914;-82
2022/12/25 13:11:22;;;;;;;;;;;10.80;91.50;;;;;;5008902;28;19913;-84
2022/12/25 13:13:49;;;;;;;;;;;10.70;91.50;;;;;;4967853;28;20005;-81
2022/12/25 13:16:17;;;;;;;;;;;10.70;91.50;;;;;;5009710;28;19910;-82
2022/12/25 13:18:43;;;;;;;;;;;10.70;91.50;;;;;;5015202;28;20357;-82
2022/12/25 13:21:14;;;;;;;;;;;10.70;91.60;;;;;;5009086;28;19956;-83
2022/12/25 13:23:40;;;;;;;;;;;10.70;91.60;;;;;;5013226;28;19949;-83
2022/12/25 13:26:15;;;;;;;;;;;10.70;91.60;;;;;;5006163;28;19917;-83
2022/12/25 13:28:41;;;;;;;;;;;10.80;91.80;;;;;;4998680;28;19917;-83
2022/12/25 13:31:13;;;;;;;;;;;10.80;91.90;;;;;;4984882;28;20392;-84
2022/12/25 13:33:46;;;;;;;;;;;10.80;91.80;;;;;;5012211;28;19949;-82
2022/12/25 13:36:12;;;;;;;;;;;10.80;91.80;;;;;;5000435;28;20380;-82
2022/12/25 13:38:42;;;;;;;;;;;10.70;91.80;;;;;;4995019;28;19947;-82
2022/12/25 13:43:56;;;;;;;;;;;10.70;91.90;;;;;;5021016;28;19920;-82
2022/12/25 13:46:24;;;;;;;;;;;10.80;91.90;;;;;;5022351;28;19955;-83
2022/12/25 13:48:56;;;;;;;;;;;10.80;91.80;;;;;;5024419;28;19914;-83
2022/12/25 13:51:21;;;;;;;;;;;10.70;91.90;;;;;;5006936;28;19913;-86
2022/12/25 13:53:47;;;;;;;;;;;10.70;92.00;;;;;;5022609;28;19971;-82
2022/12/25 13:56:14;;;;;;;;;;;10.80;91.90;;;;;;5019408;28;19924;-82
2022/12/25 13:58:40;;;;;;;;;;;10.60;91.90;;;;;;5006558;28;20394;-82
2022/12/25 14:01:05;;;;;;;;;;;10.70;92.00;;;;;;5004529;28;19913;-83
2022/12/25 14:03:35;;;;;;;;;;;10.70;92.00;;;;;;5019208;28;20473;-82
2022/12/25 14:06:01;;;;;;;;;;;10.70;92.10;;;;;;5058713;22;19928;-85
2022/12/25 14:08:29;;;;;;;;;;;10.70;92.00;;;;;;5037345;28;19924;-84
2022/12/25 14:10:55;;;;;;;;;;;10.80;92.10;;;;;;5053217;28;19921;-85
2022/12/25 14:13:22;;;;;;;;;;;10.80;92.10;;;;;;5034919;28;20103;-85
2022/12/25 14:15:48;;;;;;;;;;;10.80;92.10;;;;;;5044160;28;20015;-85
2022/12/25 14:18:15;;;;;;;;;;;10.80;92.10;;;;;;5020186;28;19996;-84
2022/12/25 14:20:52;;;;;;;;;;;10.70;92.00;;;;;;5048033;28;20401;-86
2022/12/25 14:23:18;;;;;;;;;;;10.80;92.10;;;;;;5034717;28;19917;-84
2022/12/25 14:25:45;;;;;;;;;;;10.80;92.10;;;;;;5021953;28;20667;-84
2022/12/25 14:28:39;;;;;;;;;;;10.80;92.10;;;;;;5031995;28;19913;-84
2022/12/25 14:31:05;;;;;;;;;;;10.80;92.10;;;;;;5004025;28;20402;-83
2022/12/25 14:33:35;;;;;;;;;;;10.80;92.10;;;;;;5040036;28;19917;-84
2022/12/25 14:36:01;;;;;;;;;;;10.80;92.30;;;;;;5006627;28;19913;-84
2022/12/25 14:38:28;;;;;;;;;;;10.80;92.30;;;;;;5010389;28;19924;-84
2022/12/25 14:40:57;;;;;;;;;;;10.80;92.30;;;;;;5007532;28;19919;-83
2022/12/25 14:43:24;;;;;;;;;;;10.80;92.30;;;;;;5031246;28;20010;-82
2022/12/25 14:45:54;;;;;;;;;;;10.80;92.30;;;;;;5031820;28;20051;-84
2022/12/25 14:48:21;;;;;;;;;;;10.80;92.30;;;;;;5013012;28;19920;-84
2022/12/25 14:50:59;;;;;;;;;;;10.80;92.40;;;;;;5013408;28;19971;-84
2022/12/25 14:53:29;;;;;;;;;;;10.90;92.40;;;;;;5043467;28;20011;-83
2022/12/25 14:55:55;;;;;;;;;;;11.00;92.30;;;;;;5042990;28;19913;-84
2022/12/25 14:58:22;;;;;;;;;;;11.00;92.00;;;;;;5032568;28;19913;-84
2022/12/25 15:00:57;;;;;;;;;;;10.90;91.80;;;;;;5020732;28;20386;-84
2022/12/25 15:03:25;;;;;;;;;;;11.10;91.90;;;;;;5037361;28;19913;-84
2022/12/25 15:05:59;;;;;;;;;;;11.00;91.70;;;;;;5046249;28;20583;-86
2022/12/25 15:08:25;;;;;;;;;;;10.90;91.90;;;;;;5026029;28;20375;-83
2022/12/25 15:10:52;;;;;;;;;;;11.00;92.00;;;;;;5011698;28;19936;-83
2022/12/25 15:13:18;;;;;;;;;;;11.00;92.10;;;;;;5005570;28;19991;-83
2022/12/25 15:15:49;;;;;;;;;;;11.10;92.00;;;;;;5018566;28;19944;-86
2022/12/25 15:18:14;;;;;;;;;;;11.10;91.90;;;;;;5013669;28;20444;-81
2022/12/25 15:20:40;;;;;;;;;;;11.10;91.90;;;;;;5010938;28;19921;-82
2022/12/25 15:23:08;;;;;;;;;;;11.20;91.60;;;;;;5012543;28;19914;-82
2022/12/25 15:25:34;;;;;;;;;;;11.10;91.70;;;;;;5029227;28;19936;-82
2022/12/25 15:27:59;;;;;;;;;;;11.00;91.80;;;;;;5013650;28;20535;-82
2022/12/25 15:30:24;;;;;;;;;;;11.10;91.80;;;;;;5020960;28;19928;-83
2022/12/25 15:32:50;;;;;;;;;;;11.10;91.90;;;;;;5011060;28;19944;-83
2022/12/25 15:35:20;;;;;;;;;;;11.10;91.80;;;;;;5010097;28;19913;-83
2022/12/25 15:37:46;;;;;;;;;;;11.10;91.90;;;;;;5006297;28;19917;-82
2022/12/25 15:40:12;;;;;;;;;;;11.10;92.00;;;;;;5008858;28;20345;-83
2022/12/25 15:42:38;;;;;;;;;;;11.10;92.10;;;;;;5004622;28;19913;-84
2022/12/25 15:45:04;;;;;;;;;;;11.00;92.10;;;;;;5000836;28;19921;-87
2022/12/25 15:47:31;;;;;;;;;;;11.10;92.10;;;;;;5021300;28;19932;-82
2022/12/25 15:49:56;;;;;;;;;;;11.10;92.10;;;;;;5033600;28;20207;-82
2022/12/25 15:52:22;;;;;;;;;;;11.10;92.10;;;;;;5036758;28;19921;-83
2022/12/25 15:54:47;;;;;;;;;;;11.10;92.00;;;;;;5038628;28;19913;-82
2022/12/25 15:57:20;;;;;;;;;;;11.10;92.00;;;;;;5040594;28;19940;-83
2022/12/25 15:59:46;;;;;;;;;;;11.10;92.10;;;;;;5018800;28;19913;-83
2022/12/25 16:02:15;;;;;;;;;;;11.10;92.10;;;;;;5019209;28;19996;-83
2022/12/25 16:04:41;;;;;;;;;;;11.10;92.10;;;;;;5022990;28;20417;-82
2022/12/25 16:07:14;;;;;;;;;;;11.10;92.00;;;;;;5019351;28;19925;-83
2022/12/25 16:09:39;;;;;;;;;;;11.10;92.00;;;;;;5017306;28;20302;-82
2022/12/25 16:12:05;;;;;;;;;;;11.20;91.80;;;;;;5001221;28;19913;-83
2022/12/25 16:14:30;;;;;;;;;;;11.10;91.80;;;;;;5016149;28;19963;-82
2022/12/25 16:16:56;;;;;;;;;;;11.10;91.80;;;;;;5009034;28;19913;-82